Time;durP1;ratioP1;P1;durP2;ratioP2;P2;SDS_P1;SDS_P2;PMS_P1;PMS_P2;Temp;Humidity;BMP_temperature;BMP_pressure;BME280_temperature;BME280_humidity;BME280_pressure;Samples;Min_cycle;Max_cycle;Signal;HPM_P1;HPM_P2
2021/06/07 00:02:17;;;;;;;14.98;11.65;;;;;;;16.46;86.44;100947.19;5018981;28;20050;-75
2021/06/07 00:04:44;;;;;;;16.65;10.90;;;;;;;16.50;86.14;100947.81;5017576;28;20343;-76
2021/06/07 00:07:12;;;;;;;13.70;11.52;;;;;;;16.47;86.27;100948.03;5018775;28;20447;-77
2021/06/07 00:09:40;;;;;;;14.98;11.75;;;;;;;16.48;86.42;100947.06;5018907;28;20053;-77
2021/06/07 00:12:12;;;;;;;15.52;11.27;;;;;;;16.38;86.01;100934.28;5018832;28;20054;-76
2021/06/07 00:14:39;;;;;;;13.75;11.32;;;;;;;16.43;86.86;100944.69;5019232;28;20054;-77
2021/06/07 00:17:06;;;;;;;15.68;10.95;;;;;;;16.44;86.45;100951.81;5019440;28;20379;-75
2021/06/07 00:19:35;;;;;;;14.35;11.20;;;;;;;16.39;86.34;100952.16;5028674;28;20406;-74
2021/06/07 00:22:03;;;;;;;13.60;11.23;;;;;;;16.34;86.56;100948.91;5041756;28;20057;-74
2021/06/07 00:24:30;;;;;;;16.08;11.55;;;;;;;16.37;86.17;100947.84;5047105;28;20042;-77
2021/06/07 00:26:57;;;;;;;13.63;11.27;;;;;;;16.34;86.51;100950.78;5042515;28;20053;-77
2021/06/07 00:29:24;;;;;;;14.25;10.95;;;;;;;16.27;86.43;100936.88;5038584;28;20080;-75
2021/06/07 00:31:51;;;;;;;16.40;12.10;;;;;;;16.29;86.58;100943.03;5038555;28;20050;-75
2021/06/07 00:34:18;;;;;;;11.75;10.52;;;;;;;16.25;86.38;100938.81;5038147;28;20056;-76
2021/06/07 00:36:44;;;;;;;14.68;10.75;;;;;;;16.25;86.75;100941.53;5037895;28;20397;-78
2021/06/07 00:39:14;;;;;;;14.35;10.63;;;;;;;16.20;86.54;100932.91;5037087;28;20111;-76
2021/06/07 00:41:44;;;;;;;16.93;10.30;;;;;;;16.22;86.61;100950.69;5037930;28;20084;-78
2021/06/07 00:44:22;;;;;;;14.13;10.15;;;;;;;16.20;85.80;100946.38;5036844;28;20294;-78
2021/06/07 00:46:49;;;;;;;12.32;9.52;;;;;;;16.21;85.78;100943.59;5038185;28;20049;-78
2021/06/07 00:49:17;;;;;;;11.77;9.15;;;;;;;16.17;85.94;100946.63;5037785;28;20057;-77
2021/06/07 00:51:46;;;;;;;12.13;9.80;;;;;;;16.15;85.98;100944.91;5036885;28;20053;-77
2021/06/07 00:54:13;;;;;;;13.20;10.15;;;;;;;16.18;86.02;100949.16;5037660;28;20053;-77
2021/06/07 00:56:40;;;;;;;13.02;9.18;;;;;;;16.10;86.04;100941.66;5020766;28;20111;-76
2021/06/07 00:59:08;;;;;;;12.93;9.63;;;;;;;16.15;85.65;100946.72;5037699;28;20324;-79
2021/06/07 01:01:35;;;;;;;12.02;9.73;;;;;;;16.15;85.91;100947.59;5037419;28;20053;-76
2021/06/07 01:04:02;;;;;;;13.02;9.25;;;;;;;16.12;85.48;100955.03;5037535;28;20045;-76
2021/06/07 01:06:30;;;;;;;12.85;9.07;;;;;;;16.05;85.98;100938.44;5037287;28;20398;-76
2021/06/07 01:08:57;;;;;;;18.73;9.18;;;;;;;16.02;86.22;100946.75;5036464;28;20049;-78
2021/06/07 01:11:25;;;;;;;14.68;9.73;;;;;;;15.88;85.90;100921.63;5037217;28;20084;-77
2021/06/07 01:13:52;;;;;;;14.73;9.25;;;;;;;16.02;85.75;100947.59;5036124;28;20123;-75
2021/06/07 01:16:19;;;;;;;11.48;9.23;;;;;;;16.10;85.82;100951.56;5037365;28;20061;-75
2021/06/07 01:18:48;;;;;;;11.15;9.35;;;;;;;16.09;85.73;100953.41;5033250;28;20107;-77
2021/06/07 01:21:25;;;;;;;12.13;9.90;;;;;;;16.08;85.81;100953.50;4999983;28;20145;-76
2021/06/07 01:23:54;;;;;;;11.00;8.40;;;;;;;16.05;85.89;100949.19;5017153;28;20104;-75
2021/06/07 01:26:22;;;;;;;11.15;8.75;;;;;;;15.98;86.05;100951.50;5017488;28;20100;-77
2021/06/07 01:28:50;;;;;;;11.43;8.77;;;;;;;16.02;86.39;100949.44;5016276;28;20232;-77
2021/06/07 01:31:18;;;;;;;12.45;8.93;;;;;;;15.99;86.87;100949.66;5017208;28;20062;-75
2021/06/07 01:33:49;;;;;;;11.35;9.07;;;;;;;16.03;86.90;100948.47;5016933;28;20049;-77
2021/06/07 01:36:16;;;;;;;11.32;8.80;;;;;;;16.00;87.17;100951.34;5017164;28;20104;-75
2021/06/07 01:38:43;;;;;;;11.88;9.32;;;;;;;15.97;86.40;100932.75;5017235;28;20053;-74
2021/06/07 01:41:12;;;;;;;10.52;9.32;;;;;;;15.96;86.78;100944.50;5016938;28;20354;-78
2021/06/07 01:43:41;;;;;;;11.23;9.57;;;;;;;15.87;86.80;100941.44;5017025;28;20050;-74
2021/06/07 01:46:07;;;;;;;14.40;9.65;;;;;;;15.87;87.06;100940.59;5016786;28;20064;-74
2021/06/07 01:48:35;;;;;;;12.98;9.77;;;;;;;15.83;87.45;100931.88;5015905;28;20045;-75
2021/06/07 01:51:05;;;;;;;12.45;9.65;;;;;;;15.79;87.46;100930.34;5016842;28;20054;-73
2021/06/07 01:53:32;;;;;;;11.60;9.40;;;;;;;15.86;87.55;100937.03;5016780;28;20103;-75
2021/06/07 01:56:01;;;;;;;11.88;9.45;;;;;;;15.82;87.78;100940.03;5015575;28;20104;-78
2021/06/07 01:58:29;;;;;;;13.50;9.70;;;;;;;15.74;87.77;100929.81;5017011;28;20104;-75
2021/06/07 02:01:05;;;;;;;16.20;9.88;;;;;;;15.73;88.26;100933.47;5016481;28;20104;-74
2021/06/07 02:03:32;;;;;;;14.27;10.18;;;;;;;15.71;88.19;100930.03;5015873;28;20049;-77
2021/06/07 02:06:01;;;;;;;15.07;10.38;;;;;;;15.60;88.94;100933.50;5016716;28;20053;-75
2021/06/07 02:08:31;;;;;;;13.38;10.20;;;;;;;15.55;88.79;100925.75;5016772;28;20116;-76
2021/06/07 02:11:12;;;;;;;13.57;10.55;;;;;;;15.61;88.85;100945.97;5016778;28;20057;-75
2021/06/07 02:13:39;;;;;;;;;;;;;;;15.64;88.52;100942.22;5017168;28;20050;-75
2021/06/07 02:16:27;;;;;;;10.82;9.10;;;;;;;15.61;88.35;100941.47;5016624;28;19992;-75
2021/06/07 02:18:54;;;;;;;16.92;9.73;;;;;;;15.49;88.30;100934.25;5015891;28;20065;-76
2021/06/07 02:21:23;;;;;;;14.77;10.00;;;;;;;15.50;88.52;100941.34;5016922;28;20061;-76
2021/06/07 02:23:51;;;;;;;13.45;10.00;;;;;;;15.36;89.18;100930.69;5017646;28;20062;-76
2021/06/07 02:26:19;;;;;;;13.20;9.82;;;;;;;15.30;89.73;100935.50;5017386;28;20061;-75
2021/06/07 02:28:55;;;;;;;12.63;10.40;;;;;;;15.26;89.68;100942.06;5017179;28;20054;-75
2021/06/07 02:31:23;;;;;;;12.77;9.95;;;;;;;15.13;90.31;100935.78;5016928;28;20057;-79
2021/06/07 02:33:51;;;;;;;14.32;9.95;;;;;;;15.10;90.38;100944.06;5016775;28;20169;-76
2021/06/07 02:36:19;;;;;;;12.93;10.25;;;;;;;15.02;90.47;100940.09;5016835;28;20653;-75
2021/06/07 02:38:46;;;;;;;12.70;9.65;;;;;;;14.96;90.50;100940.50;5016789;28;20050;-76
2021/06/07 02:41:14;;;;;;;11.82;10.23;;;;;;;14.93;90.56;100944.25;5017119;28;20053;-78
2021/06/07 02:43:40;;;;;;;10.75;9.45;;;;;;;14.85;90.58;100945.72;5016472;28;20112;-78
2021/06/07 02:46:07;;;;;;;11.90;9.35;;;;;;;14.76;91.25;100934.63;5017983;28;20046;-75
2021/06/07 02:48:35;;;;;;;13.95;10.32;;;;;;;14.74;90.95;100941.94;5019115;28;20054;-74
2021/06/07 02:51:01;;;;;;;12.18;10.13;;;;;;;14.70;90.93;100934.16;5019764;28;20561;-76
2021/06/07 02:53:28;;;;;;;12.10;10.32;;;;;;;14.67;90.81;100938.75;5023406;28;20402;-75
2021/06/07 02:55:56;;;;;;;11.70;10.15;;;;;;;14.65;91.09;100938.00;5016483;28;20053;-76
2021/06/07 02:58:23;;;;;;;14.52;9.63;;;;;;;14.61;91.39;100946.34;5031588;28;20100;-74
2021/06/07 03:00:52;;;;;;;13.13;10.05;;;;;;;14.57;91.80;100944.81;5016084;28;20053;-78
2021/06/07 03:03:20;;;;;;;11.82;9.90;;;;;;;14.46;91.96;100943.72;5015591;28;20054;-75
2021/06/07 03:05:48;;;;;;;14.02;9.98;;;;;;;14.46;91.89;100945.53;5015949;28;20127;-77
2021/06/07 03:08:18;;;;;;;14.80;10.77;;;;;;;14.15;92.78;100913.47;5016440;28;20053;-76
2021/06/07 03:10:50;;;;;;;14.48;9.77;;;;;;;14.24;92.76;100933.50;5014565;28;20120;-76
2021/06/07 03:13:20;;;;;;;11.95;10.52;;;;;;;14.21;93.20;100953.34;5015792;28;20049;-75
2021/06/07 03:15:48;;;;;;;;;;;;;;;14.20;93.28;100942.69;5015231;28;20096;-76
2021/06/07 03:18:15;;;;;;;13.30;10.70;;;;;;;14.19;93.19;100938.28;5015535;28;19976;-75
2021/06/07 03:20:42;;;;;;;12.38;10.55;;;;;;;14.17;93.51;100950.94;5049098;28;20067;-76
2021/06/07 03:23:18;;;;;;;14.68;11.05;;;;;;;14.19;93.46;100947.22;5035369;28;20053;-74
2021/06/07 03:25:46;;;;;;;14.85;11.90;;;;;;;14.18;93.46;100953.53;5034396;28;20408;-75
2021/06/07 03:28:15;;;;;;;15.07;11.30;;;;;;;14.14;93.38;100941.25;5035464;28;20053;-76
2021/06/07 03:30:42;;;;;;;17.42;12.35;;;;;;;14.16;93.65;100949.22;5035112;28;20099;-76
2021/06/07 03:33:10;;;;;;;18.15;12.60;;;;;;;14.09;93.74;100948.75;5035280;28;20435;-77
2021/06/07 03:35:39;;;;;;;16.00;12.13;;;;;;;14.06;93.49;100957.00;5035298;28;20132;-77
2021/06/07 03:38:06;;;;;;;13.77;11.43;;;;;;;14.03;93.94;100958.06;5035207;28;20050;-77
2021/06/07 03:40:36;;;;;;;17.25;12.57;;;;;;;14.02;94.52;100950.09;5033878;28;20112;-75
2021/06/07 03:43:05;;;;;;;18.23;12.00;;;;;;;14.00;94.41;100952.88;5035400;28;20083;-75
2021/06/07 03:45:32;;;;;;;14.77;12.30;;;;;;;14.04;94.71;100932.06;5035194;28;20045;-77
2021/06/07 03:48:00;;;;;;;16.40;12.88;;;;;;;14.08;94.45;100949.72;5035434;28;20103;-76
2021/06/07 03:50:29;;;;;;;15.23;13.63;;;;;;;14.13;94.59;100952.97;5035259;28;20107;-77
2021/06/07 03:52:56;;;;;;;17.33;14.52;;;;;;;14.13;94.61;100947.59;5034877;28;20353;-78
2021/06/07 03:55:25;;;;;;;15.63;13.10;;;;;;;14.09;94.73;100955.00;5035135;28;20056;-77
2021/06/07 03:57:53;;;;;;;14.65;12.88;;;;;;;14.10;94.75;100953.16;5035138;28;20100;-76
2021/06/07 04:00:27;;;;;;;16.05;13.68;;;;;;;14.05;94.83;100940.03;5033812;28;20076;-77
2021/06/07 04:02:54;;;;;;;20.02;14.63;;;;;;;14.17;94.66;100953.63;5033985;28;20386;-77
2021/06/07 04:05:22;;;;;;;18.05;14.85;;;;;;;14.28;94.27;100961.88;5034815;28;20128;-76
2021/06/07 04:07:49;;;;;;;19.60;14.80;;;;;;;14.33;93.97;100964.25;5034666;28;20053;-75
2021/06/07 04:10:19;;;;;;;17.10;14.80;;;;;;;14.28;93.92;100963.69;5034857;28;20056;-77
2021/06/07 04:12:48;;;;;;;17.40;14.85;;;;;;;14.23;94.39;100956.78;5035215;28;20100;-78
2021/06/07 04:15:17;;;;;;;18.52;15.20;;;;;;;14.18;94.36;100942.81;5034397;28;20057;-75
2021/06/07 04:17:45;;;;;;;18.52;14.48;;;;;;;14.32;94.19;100957.19;5036053;28;20107;-74
2021/06/07 04:20:15;;;;;;;18.48;15.02;;;;;;;14.19;94.41;100949.91;5034085;28;20085;-73
2021/06/07 04:22:43;;;;;;;17.25;14.77;;;;;;;14.33;94.08;100957.06;5018398;28;20439;-75
2021/06/07 04:25:12;;;;;;;18.58;14.77;;;;;;;14.43;93.73;100960.00;5017798;28;20073;-74
2021/06/07 04:27:39;;;;;;;17.33;14.02;;;;;;;14.35;93.90;100956.97;5018603;28;20077;-76
2021/06/07 04:30:09;;;;;;;17.48;13.98;;;;;;;14.44;93.55;100961.72;5018476;28;20104;-76
2021/06/07 04:32:36;;;;;;;17.98;14.80;;;;;;;14.56;93.14;100956.53;5018513;28;20050;-75
2021/06/07 04:35:05;;;;;;;21.55;14.38;;;;;;;14.59;93.05;100959.03;5018108;28;20432;-75
2021/06/07 04:37:31;;;;;;;18.88;15.45;;;;;;;14.64;92.53;100956.88;5018116;28;20054;-75
2021/06/07 04:39:58;;;;;;;17.27;14.68;;;;;;;14.68;92.36;100955.72;5033643;28;20065;-75
2021/06/07 04:42:25;;;;;;;23.92;16.85;;;;;;;14.81;91.78;100955.81;5018131;28;20050;-75
2021/06/07 04:44:52;;;;;;;28.60;18.13;;;;;;;14.88;91.05;100956.28;5018491;28;20054;-76
2021/06/07 04:47:19;;;;;;;22.20;16.88;;;;;;;14.90;90.48;100957.03;4999022;28;20054;-76
2021/06/07 04:49:45;;;;;;;21.38;16.63;;;;;;;14.86;90.74;100956.38;4998732;28;20361;-76
2021/06/07 04:52:12;;;;;;;25.25;16.45;;;;;;;14.86;90.81;100951.00;4998531;28;20054;-77
2021/06/07 04:54:39;;;;;;;22.25;16.48;;;;;;;14.84;90.83;100950.25;4998558;28;20050;-75
2021/06/07 04:57:06;;;;;;;23.92;16.13;;;;;;;14.97;90.43;100958.34;4997313;28;20104;-76
2021/06/07 04:59:33;;;;;;;21.55;15.57;;;;;;;15.04;90.04;100961.50;4995139;28;20097;-75
2021/06/07 05:02:00;;;;;;;20.55;15.75;;;;;;;15.01;90.57;100961.69;4997305;28;20112;-76
2021/06/07 05:04:26;;;;;;;20.23;16.08;;;;;;;15.00;90.67;100965.34;4997881;28;20054;-77
2021/06/07 05:06:57;;;;;;;23.42;15.88;;;;;;;14.96;89.62;100953.94;4996844;28;20109;-77
2021/06/07 05:09:23;;;;;;;25.08;17.17;;;;;;;15.00;89.93;100958.16;4997852;28;20455;-77
2021/06/07 05:11:50;;;;;;;23.95;17.77;;;;;;;15.00;90.04;100960.84;4998239;28;20061;-77
2021/06/07 05:14:17;;;;;;;26.80;17.63;;;;;;;15.05;90.04;100955.16;5010181;28;20084;-75
2021/06/07 05:16:44;;;;;;;26.52;18.80;;;;;;;15.13;89.43;100960.84;5022038;28;20511;-78
2021/06/07 05:19:12;;;;;;;30.50;19.25;;;;;;;15.13;89.21;100947.41;5027929;28;20051;-79
2021/06/07 05:21:40;;;;;;;33.90;19.63;;;;;;;15.10;89.35;100952.13;5016607;28;20480;-77
2021/06/07 05:24:07;;;;;;;31.13;20.77;;;;;;;15.24;88.82;100962.81;5024166;28;20046;-79
2021/06/07 05:26:34;;;;;;;33.50;21.70;;;;;;;15.24;89.29;100960.13;5008010;28;20041;-79
2021/06/07 05:29:02;;;;;;;40.88;24.25;;;;;;;15.39;88.71;100970.81;5005218;28;20071;-75
2021/06/07 05:31:29;;;;;;;55.90;31.17;;;;;;;15.41;87.49;100972.41;5005869;28;20110;-79
2021/06/07 05:33:56;;;;;;;59.17;33.05;;;;;;;15.38;87.17;100966.38;5007278;28;20168;-79
2021/06/07 05:36:23;;;;;;;54.20;31.17;;;;;;;15.41;87.15;100972.41;5005623;28;20102;-76
2021/06/07 05:38:49;;;;;;;56.90;31.92;;;;;;;15.39;87.07;100957.34;5007901;28;20060;-77
2021/06/07 05:41:16;;;;;;;55.45;32.00;;;;;;;15.39;87.43;100962.72;5007253;28;20491;-78
2021/06/07 05:43:43;;;;;;;56.95;32.78;;;;;;;15.36;86.16;100962.97;5006310;28;20383;-79
2021/06/07 05:46:12;;;;;;;54.15;32.85;;;;;;;15.38;86.54;100961.00;5005948;28;20097;-77
2021/06/07 05:48:38;;;;;;;58.15;33.70;;;;;;;15.36;86.40;100971.88;5006786;28;20157;-76
2021/06/07 05:51:05;;;;;;;56.33;33.90;;;;;;;15.37;86.81;100970.94;5009302;28;20085;-75
2021/06/07 05:53:32;;;;;;;56.03;33.00;;;;;;;15.46;85.76;100969.41;5004908;28;20436;-74
2021/06/07 05:55:58;;;;;;;53.40;33.33;;;;;;;15.23;85.65;100936.91;5008493;28;20046;-84
2021/06/07 05:58:25;;;;;;;56.53;32.60;;;;;;;15.51;85.55;100978.03;5006877;28;20057;-75
2021/06/07 06:00:53;;;;;;;51.88;31.50;;;;;;;15.51;85.21;100980.72;5006336;28;20047;-80
2021/06/07 06:03:19;;;;;;;51.70;32.40;;;;;;;15.37;85.03;100988.88;5008538;28;20050;-76
2021/06/07 06:05:46;;;;;;;53.28;31.17;;;;;;;15.33;85.51;100981.03;5007440;28;21044;-76
2021/06/07 06:08:13;;;;;;;59.35;32.50;;;;;;;15.41;85.89;100985.03;5016658;28;20108;-78
2021/06/07 06:10:40;;;;;;;48.50;30.08;;;;;;;15.39;84.80;100981.56;5016058;28;20054;-78
2021/06/07 06:13:27;;;;;;;45.42;29.15;;;;;;;15.50;85.20;100992.47;5015505;28;20136;-78
2021/06/07 06:15:54;;;;;;;44.13;28.08;;;;;;;15.62;84.39;100985.34;5014840;28;20423;-75
2021/06/07 06:18:21;;;;;;;36.78;23.92;;;;;;;15.64;83.87;100988.81;5015620;28;20053;-77
2021/06/07 06:20:47;;;;;;;40.40;23.85;;;;;;;15.48;84.24;100968.34;4996656;28;20054;-77
2021/06/07 06:23:14;;;;;;;37.00;24.20;;;;;;;15.56;84.01;100975.03;4996539;28;20046;-76
2021/06/07 06:25:41;;;;;;;34.80;22.10;;;;;;;15.66;82.88;100984.19;4996733;28;20054;-77
2021/06/07 06:28:10;;;;;;;37.42;23.38;;;;;;;15.60;83.98;100988.16;4995408;28;20097;-76
2021/06/07 06:30:37;;;;;;;29.73;20.38;;;;;;;15.67;83.29;100979.66;4995874;28;20112;-78
2021/06/07 06:33:04;;;;;;;31.48;20.77;;;;;;;15.72;83.82;100985.59;4995445;28;20129;-77
2021/06/07 06:35:32;;;;;;;27.35;19.75;;;;;;;15.61;83.68;100979.13;4996490;28;20053;-75
2021/06/07 06:37:58;;;;;;;28.63;20.40;;;;;;;15.68;84.31;100984.94;4996662;28;20058;-75
2021/06/07 06:40:31;;;;;;;31.63;20.48;;;;;;;15.82;83.30;100983.09;4996149;28;20058;-77
2021/06/07 06:42:59;;;;;;;29.08;20.00;;;;;;;15.91;82.99;100984.31;4996161;28;20403;-75
2021/06/07 06:45:28;;;;;;;26.48;19.13;;;;;;;15.80;81.78;100961.69;4995122;28;20528;-77
2021/06/07 06:47:56;;;;;;;24.98;18.45;;;;;;;15.76;82.52;100981.72;4995330;28;20105;-76
2021/06/07 06:50:28;;;;;;;26.95;18.73;;;;;;;15.92;82.41;100978.84;4996190;28;20058;-75
2021/06/07 06:52:54;;;;;;;27.30;19.20;;;;;;;15.94;81.72;100974.22;4996011;28;20507;-77
2021/06/07 06:55:21;;;;;;;26.42;17.95;;;;;;;15.91;81.98;100978.91;5010665;28;20093;-77
2021/06/07 06:57:48;;;;;;;23.48;16.75;;;;;;;15.96;81.98;100969.56;4996081;28;20127;-77
2021/06/07 07:00:15;;;;;;;21.67;17.65;;;;;;;16.09;80.70;100977.66;5011283;28;20058;-74
2021/06/07 07:02:42;;;;;;;20.85;16.10;;;;;;;16.09;80.67;100988.41;4995875;28;20494;-74
2021/06/07 07:05:09;;;;;;;20.83;16.02;;;;;;;16.16;80.71;100994.22;5011168;28;20059;-74
2021/06/07 07:07:36;;;;;;;19.25;14.55;;;;;;;16.13;79.43;100984.50;4996175;28;20046;-75
2021/06/07 07:10:05;;;;;;;22.30;14.90;;;;;;;16.22;79.79;100992.91;4995702;28;20491;-74
2021/06/07 07:12:32;;;;;;;21.70;14.77;;;;;;;16.24;80.02;100988.28;4995020;28;20120;-75
2021/06/07 07:15:01;;;;;;;20.75;14.63;;;;;;;16.37;78.13;100989.13;4996083;28;20050;-74
2021/06/07 07:17:31;;;;;;;18.25;13.77;;;;;;;16.34;78.14;100983.94;4995702;28;20054;-76
2021/06/07 07:19:59;;;;;;;19.38;14.57;;;;;;;16.45;78.67;100982.31;5007863;28;20112;-75
2021/06/07 07:22:26;;;;;;;17.35;13.85;;;;;;;16.54;78.87;100997.81;5015729;28;20054;-73
2021/06/07 07:24:53;;;;;;;16.67;13.20;;;;;;;16.58;78.20;100993.91;5015428;28;20054;-74
2021/06/07 07:27:20;;;;;;;14.68;12.05;;;;;;;16.79;76.21;100993.31;5014464;28;20381;-72
2021/06/07 07:29:47;;;;;;;17.63;11.40;;;;;;;16.74;75.37;100999.03;5015146;28;20100;-74
2021/06/07 07:32:14;;;;;;;17.40;11.13;;;;;;;16.56;75.00;100998.53;5015355;28;20112;-72
2021/06/07 07:34:43;;;;;;;14.15;11.68;;;;;;;16.59;75.87;100986.69;5014522;28;20096;-73
2021/06/07 07:37:10;;;;;;;17.40;11.77;;;;;;;16.64;76.71;100988.09;5014735;28;20053;-73
2021/06/07 07:39:38;;;;;;;13.65;11.93;;;;;;;16.64;76.49;100993.47;4998181;28;20054;-74
2021/06/07 07:42:05;;;;;;;18.60;11.48;;;;;;;16.73;76.35;100996.44;5015611;28;20054;-74
2021/06/07 07:44:33;;;;;;;13.43;10.93;;;;;;;16.70;76.07;100995.72;5014353;28;20054;-73
2021/06/07 07:47:01;;;;;;;14.02;10.93;;;;;;;16.76;75.46;100993.53;5029880;28;20080;-73
2021/06/07 07:49:28;;;;;;;17.67;11.68;;;;;;;16.75;75.34;100994.50;5015824;28;20049;-72
2021/06/07 07:51:55;;;;;;;17.92;12.70;;;;;;;16.63;76.56;100993.56;5015481;28;20129;-73
2021/06/07 07:54:22;;;;;;;16.55;12.25;;;;;;;16.61;75.50;100987.44;5017396;28;20050;-74
2021/06/07 07:56:48;;;;;;;14.65;11.50;;;;;;;16.54;76.38;100992.41;5019298;28;20092;-72
2021/06/07 07:59:15;;;;;;;16.05;11.68;;;;;;;16.47;75.96;100993.84;5018859;28;20058;-72
2021/06/07 08:01:42;;;;;;;16.88;12.63;;;;;;;16.35;76.10;101000.97;5018832;28;20432;-72
2021/06/07 08:04:10;;;;;;;17.73;13.07;;;;;;;16.15;75.80;100982.59;5018664;28;20053;-72
2021/06/07 08:06:37;;;;;;;19.48;12.20;;;;;;;16.21;73.69;100994.75;5018749;28;20046;-73
2021/06/07 08:09:04;;;;;;;16.77;12.73;;;;;;;16.40;75.09;100996.97;5018689;28;20081;-72
2021/06/07 08:11:31;;;;;;;17.67;13.75;;;;;;;16.34;75.53;100993.88;5017489;28;20084;-71
2021/06/07 08:13:58;;;;;;;15.48;13.40;;;;;;;16.41;75.95;101001.38;5021609;28;20054;-71
2021/06/07 08:16:25;;;;;;;19.25;14.05;;;;;;;16.15;75.57;100987.97;5022258;28;20061;-72
2021/06/07 08:18:52;;;;;;;18.13;14.07;;;;;;;16.22;76.46;100991.09;5018939;28;20042;-72
2021/06/07 08:21:18;;;;;;;19.17;14.52;;;;;;;16.28;75.28;100992.47;5018208;28;20162;-71
2021/06/07 08:23:45;;;;;;;16.63;12.68;;;;;;;16.40;74.51;100991.59;5018413;28;20115;-72
2021/06/07 08:26:12;;;;;;;17.98;13.70;;;;;;;16.60;74.83;100991.97;5018492;28;20383;-72
2021/06/07 08:28:39;;;;;;;16.35;12.77;;;;;;;16.89;71.74;100991.63;5018278;28;20101;-72
2021/06/07 08:31:06;;;;;;;16.25;12.00;;;;;;;17.26;71.02;100998.81;5018235;28;20050;-72
2021/06/07 08:33:35;;;;;;;16.45;13.07;;;;;;;17.37;72.02;100995.28;5017584;28;20081;-72
2021/06/07 08:36:06;;;;;;;17.35;13.68;;;;;;;17.60;72.45;100981.88;5017364;28;20100;-72
2021/06/07 08:38:33;;;;;;;19.70;13.35;;;;;;;17.53;72.05;100988.75;5018131;28;20102;-72
2021/06/07 08:41:00;;;;;;;18.70;13.80;;;;;;;17.44;71.70;100979.50;5017954;28;20112;-71
2021/06/07 08:43:27;;;;;;;22.15;14.57;;;;;;;17.42;72.94;100987.72;5018312;28;20049;-73
2021/06/07 08:45:54;;;;;;;21.33;14.32;;;;;;;17.39;73.00;101001.47;5018272;28;20133;-75
2021/06/07 08:48:21;;;;;;;18.65;14.00;;;;;;;17.34;73.34;100990.16;5018287;28;20058;-72
2021/06/07 08:50:48;;;;;;;24.35;14.90;;;;;;;17.48;71.34;101000.75;5018190;28;20053;-75
2021/06/07 08:53:15;;;;;;;19.83;14.07;;;;;;;17.60;71.81;100995.38;5017772;28;20061;-74
2021/06/07 08:55:42;;;;;;;25.00;13.77;;;;;;;17.47;69.94;100980.13;5017679;28;20407;-75
2021/06/07 08:58:09;;;;;;;22.20;14.35;;;;;;;17.85;68.73;100993.44;5016770;28;20058;-75
2021/06/07 09:00:39;;;;;;;24.02;15.93;;;;;;;17.84;68.50;100978.22;5017612;28;20088;-75
2021/06/07 09:03:13;;;;;;;20.03;13.80;;;;;;;18.09;68.32;100995.22;5017020;28;20050;-75
2021/06/07 09:05:45;;;;;;;24.67;14.88;;;;;;;18.38;69.39;100983.91;5017328;28;20060;-78
2021/06/07 09:08:14;;;;;;;22.52;14.85;;;;;;;18.61;66.39;100984.72;5018051;28;20054;-78
2021/06/07 09:10:47;;;;;;;23.73;14.38;;;;;;;18.91;67.55;100995.84;5018025;28;20120;-75
2021/06/07 09:13:16;;;;;;;21.08;13.05;;;;;;;18.81;64.26;100996.63;5016713;28;20112;-76
2021/06/07 09:15:46;;;;;;;20.02;12.65;;;;;;;18.73;66.06;100986.44;5017375;28;20436;-76
2021/06/07 09:18:37;;;;;;;19.17;12.68;;;;;;;18.87;64.42;100990.66;5017674;28;20053;-76
2021/06/07 09:21:12;;;;;;;19.83;12.63;;;;;;;19.02;63.84;100994.94;4996971;28;20116;-77
2021/06/07 09:23:42;;;;;;;20.08;12.35;;;;;;;19.10;64.22;100992.47;4997807;28;20050;-76
2021/06/07 09:26:42;;;;;;;19.60;12.85;;;;;;;18.97;63.93;100992.63;4997551;28;20591;-77
2021/06/07 09:29:10;;;;;;;;;;;;;;;19.08;63.88;100998.03;4996867;28;20449;-75
2021/06/07 09:31:40;;;;;;;18.52;11.95;;;;;;;19.33;65.20;101000.53;4997485;28;19980;-73
2021/06/07 09:34:08;;;;;;;;;;;;;;;19.24;63.98;100994.03;4998012;28;20054;-74
2021/06/07 09:36:39;;;;;;;17.15;11.52;;;;;;;19.25;64.06;100998.44;4997477;28;19929;-77
2021/06/07 09:39:08;;;;;;;15.23;10.38;;;;;;;19.43;63.45;100996.03;4997281;28;20150;-77
2021/06/07 09:42:01;;;;;;;16.60;10.70;;;;;;;19.43;61.64;100995.19;4997308;28;20413;-77
2021/06/07 09:44:38;;;;;;;14.45;9.90;;;;;;;19.52;62.61;100997.09;4997718;28;20129;-76
2021/06/07 09:47:16;;;;;;;13.85;10.70;;;;;;;19.63;62.39;100994.31;4997368;28;20054;-76
2021/06/07 09:49:49;;;;;;;18.38;11.30;;;;;;;19.74;61.77;100987.09;5012643;28;20062;-77
2021/06/07 09:52:20;;;;;;;14.93;9.85;;;;;;;19.92;62.88;100996.34;4997209;28;20054;-75
2021/06/07 09:55:17;;;;;;;14.32;10.00;;;;;;;19.98;62.33;100996.81;4996279;28;20066;-75
2021/06/07 09:57:56;;;;;;;14.05;11.18;;;;;;;19.95;60.03;100990.66;4997507;28;20058;-76
2021/06/07 10:00:33;;;;;;;17.50;10.77;;;;;;;20.18;61.21;100995.91;4997633;28;20351;-75
2021/06/07 10:03:25;;;;;;;14.55;10.60;;;;;;;20.39;60.29;100996.84;4997146;28;20085;-75
2021/06/07 10:06:01;;;;;;;15.75;9.90;;;;;;;20.15;60.76;100998.03;5011989;28;20064;-74
2021/06/07 10:08:44;;;;;;;16.23;10.02;;;;;;;20.24;61.50;101001.78;4997145;28;20054;-73
2021/06/07 10:11:35;;;;;;;13.65;10.25;;;;;;;19.98;62.21;100994.97;4996987;28;20142;-75
2021/06/07 10:14:08;;;;;;;14.70;11.23;;;;;;;19.85;60.43;100987.03;4996035;28;20444;-74
2021/06/07 10:16:37;;;;;;;12.80;9.45;;;;;;;19.85;62.13;100987.03;4996584;28;20437;-74
2021/06/07 10:19:07;;;;;;;13.30;9.93;;;;;;;20.03;62.31;100992.72;5013678;28;20447;-74
2021/06/07 10:21:34;;;;;;;;;;;;;;;20.08;61.73;100987.75;5027035;28;20127;-73
2021/06/07 10:24:01;;;;;;;13.18;10.27;;;;;;;19.94;61.53;100985.38;5020665;28;19929;-75
2021/06/07 10:26:28;;;;;;;12.73;9.18;;;;;;;20.16;62.77;100983.50;5016559;28;20060;-76
2021/06/07 10:28:55;;;;;;;14.20;9.75;;;;;;;20.29;61.59;100976.00;5016475;28;20057;-76
2021/06/07 10:31:24;;;;;;;14.90;9.73;;;;;;;20.82;60.85;100983.94;5015045;28;20057;-75
2021/06/07 10:34:02;;;;;;;14.45;8.57;;;;;;;21.22;58.36;100982.13;5016569;28;20045;-75
2021/06/07 10:36:34;;;;;;;11.77;8.80;;;;;;;;;;5015853;28;20046;-76
2021/06/07 10:39:27;;;;;;;9.48;8.43;;;;;;;21.11;56.89;100985.84;5016183;28;20107;-74
2021/06/07 10:41:57;;;;;;;12.20;8.05;;;;;;;21.38;58.70;100981.56;5014795;28;20050;-75
2021/06/07 10:44:35;;;;;;;9.90;7.47;;;;;;;21.39;58.56;100975.97;5016180;28;20049;-74
2021/06/07 10:47:08;;;;;;;11.23;7.28;;;;;;;21.19;58.80;100977.00;5015748;28;20440;-76
2021/06/07 10:49:38;;;;;;;7.82;6.15;;;;;;;21.29;58.34;100976.00;5016172;28;20356;-75
2021/06/07 10:52:05;;;;;;;8.20;6.68;;;;;;;21.36;58.59;100987.13;5015742;28;20341;-74
2021/06/07 10:54:33;;;;;;;8.15;5.50;;;;;;;21.39;58.33;100977.81;5015922;28;20140;-74
2021/06/07 10:57:22;;;;;;;7.95;4.78;;;;;;;21.54;57.54;100978.25;5015897;28;20112;-75
2021/06/07 10:59:51;;;;;;;6.72;5.38;;;;;;;21.67;55.97;100975.19;5014739;28;20049;-74
2021/06/07 11:02:19;;;;;;;6.70;5.53;;;;;;;21.73;57.17;100969.22;5015391;28;20053;-76
2021/06/07 11:05:00;;;;;;;9.15;6.07;;;;;;;21.63;58.42;100971.91;5015704;28;20141;-75
2021/06/07 11:07:27;;;;;;;9.48;7.47;;;;;;;21.34;58.63;100970.13;5015538;28;20049;-74
2021/06/07 11:10:17;;;;;;;10.32;7.18;;;;;;;21.01;60.09;100975.88;5015818;28;20127;-73
2021/06/07 11:12:45;;;;;;;11.60;7.63;;;;;;;21.10;60.90;100970.56;5014538;28;20324;-75
2021/06/07 11:15:15;;;;;;;8.45;6.57;;;;;;;21.37;58.73;100964.41;5015733;28;20112;-76
2021/06/07 11:17:43;;;;;;;8.82;7.15;;;;;;;20.94;58.47;100963.88;5015712;28;20439;-74
2021/06/07 11:20:11;;;;;;;8.65;7.15;;;;;;;20.94;60.17;100963.88;5000482;28;20055;-75
2021/06/07 11:23:03;;;;;;;10.25;6.75;;;;;;;21.00;59.93;100963.28;4995612;28;20086;-75
2021/06/07 11:25:30;;;;;;;9.63;6.30;;;;;;;21.02;60.76;100957.69;4996130;28;20057;-77